sensor_id;sensor_type;location;lat;lon;timestamp;pressure;altitude;pressure_sealevel;temperature
71564;BMP180;59391;52.504;13.438;2023-12-22T00:02:08;98091.00;;;9.00
71564;BMP180;59391;52.504;13.438;2023-12-22T00:04:37;98059.00;;;8.90
71564;BMP180;59391;52.504;13.438;2023-12-22T00:07:02;98098.00;;;9.00
71564;BMP180;59391;52.504;13.438;2023-12-22T00:09:28;98093.00;;;9.10
71564;BMP180;59391;52.504;13.438;2023-12-22T00:11:54;98084.00;;;9.20
71564;BMP180;59391;52.504;13.438;2023-12-22T00:14:25;98126.00;;;9.20
71564;BMP180;59391;52.504;13.438;2023-12-22T00:16:51;98129.00;;;8.90
71564;BMP180;59391;52.504;13.438;2023-12-22T00:19:17;98120.00;;;9.00
71564;BMP180;59391;52.504;13.438;2023-12-22T00:21:42;98109.00;;;9.00
71564;BMP180;59391;52.504;13.438;2023-12-22T00:24:08;98113.00;;;9.00
71564;BMP180;59391;52.504;13.438;2023-12-22T00:26:33;98119.00;;;8.90
71564;BMP180;59391;52.504;13.438;2023-12-22T00:28:59;98105.00;;;9.00
71564;BMP180;59391;52.504;13.438;2023-12-22T00:31:24;98135.00;;;8.90
71564;BMP180;59391;52.504;13.438;2023-12-22T00:33:50;98143.00;;;9.00
71564;BMP180;59391;52.504;13.438;2023-12-22T00:36:16;98138.00;;;8.90
71564;BMP180;59391;52.504;13.438;2023-12-22T00:38:43;98151.00;;;9.00
71564;BMP180;59391;52.504;13.438;2023-12-22T00:41:10;98132.00;;;9.10
71564;BMP180;59391;52.504;13.438;2023-12-22T00:43:36;98165.00;;;9.00
71564;BMP180;59391;52.504;13.438;2023-12-22T00:46:01;98153.00;;;8.90
71564;BMP180;59391;52.504;13.438;2023-12-22T00:48:27;98171.00;;;9.10
71564;BMP180;59391;52.504;13.438;2023-12-22T00:50:54;98164.00;;;9.10
71564;BMP180;59391;52.504;13.438;2023-12-22T00:53:19;98159.00;;;9.00
71564;BMP180;59391;52.504;13.438;2023-12-22T00:55:45;98151.00;;;9.10
71564;BMP180;59391;52.504;13.438;2023-12-22T00:58:11;98175.00;;;9.20
71564;BMP180;59391;52.504;13.438;2023-12-22T01:00:57;98188.00;;;9.00
71564;BMP180;59391;52.504;13.438;2023-12-22T01:03:23;98199.00;;;9.10
71564;BMP180;59391;52.504;13.438;2023-12-22T01:05:49;98181.00;;;9.00
71564;BMP180;59391;52.504;13.438;2023-12-22T01:08:14;98182.00;;;9.10
71564;BMP180;59391;52.504;13.438;2023-12-22T01:10:40;98188.00;;;9.20
71564;BMP180;59391;52.504;13.438;2023-12-22T01:13:06;98190.00;;;8.80
71564;BMP180;59391;52.504;13.438;2023-12-22T01:15:31;98187.00;;;8.90
71564;BMP180;59391;52.504;13.438;2023-12-22T01:17:57;98212.00;;;9.00
71564;BMP180;59391;52.504;13.438;2023-12-22T01:20:22;98206.00;;;8.90
71564;BMP180;59391;52.504;13.438;2023-12-22T01:22:48;98247.00;;;9.00
71564;BMP180;59391;52.504;13.438;2023-12-22T01:25:14;98201.00;;;8.90
71564;BMP180;59391;52.504;13.438;2023-12-22T01:27:39;98220.00;;;8.80
71564;BMP180;59391;52.504;13.438;2023-12-22T01:30:06;98221.00;;;8.80
71564;BMP180;59391;52.504;13.438;2023-12-22T01:32:32;98233.00;;;8.80
71564;BMP180;59391;52.504;13.438;2023-12-22T01:35:00;98218.00;;;8.70
71564;BMP180;59391;52.504;13.438;2023-12-22T01:37:30;98246.00;;;8.80
71564;BMP180;59391;52.504;13.438;2023-12-22T01:39:55;98242.00;;;8.80
71564;BMP180;59391;52.504;13.438;2023-12-22T01:42:21;98238.00;;;8.80
71564;BMP180;59391;52.504;13.438;2023-12-22T01:44:47;98233.00;;;8.60
71564;BMP180;59391;52.504;13.438;2023-12-22T01:47:13;98272.00;;;8.90
71564;BMP180;59391;52.504;13.438;2023-12-22T01:49:39;98248.00;;;8.90
71564;BMP180;59391;52.504;13.438;2023-12-22T01:52:06;98260.00;;;8.80
71564;BMP180;59391;52.504;13.438;2023-12-22T01:54:32;98280.00;;;8.70
71564;BMP180;59391;52.504;13.438;2023-12-22T01:56:58;98270.00;;;8.90
71564;BMP180;59391;52.504;13.438;2023-12-22T01:59:24;98247.00;;;8.80
71564;BMP180;59391;52.504;13.438;2023-12-22T02:01:51;98258.00;;;8.80
71564;BMP180;59391;52.504;13.438;2023-12-22T02:04:17;98249.00;;;8.90
71564;BMP180;59391;52.504;13.438;2023-12-22T02:06:44;98252.00;;;8.90
71564;BMP180;59391;52.504;13.438;2023-12-22T02:09:09;98253.00;;;8.70
71564;BMP180;59391;52.504;13.438;2023-12-22T02:11:38;98264.00;;;8.80
71564;BMP180;59391;52.504;13.438;2023-12-22T02:14:04;98285.00;;;8.90
71564;BMP180;59391;52.504;13.438;2023-12-22T02:16:45;98268.00;;;9.00
71564;BMP180;59391;52.504;13.438;2023-12-22T02:19:41;98266.00;;;9.00
71564;BMP180;59391;52.504;13.438;2023-12-22T02:22:10;98265.00;;;8.60
71564;BMP180;59391;52.504;13.438;2023-12-22T02:24:37;98261.00;;;8.70
71564;BMP180;59391;52.504;13.438;2023-12-22T02:30:34;98272.00;;;8.60
71564;BMP180;59391;52.504;13.438;2023-12-22T02:33:04;98269.00;;;8.60
71564;BMP180;59391;52.504;13.438;2023-12-22T02:35:33;98288.00;;;8.60
71564;BMP180;59391;52.504;13.438;2023-12-22T02:38:03;98288.00;;;8.40
71564;BMP180;59391;52.504;13.438;2023-12-22T02:40:31;98257.00;;;8.50
71564;BMP180;59391;52.504;13.438;2023-12-22T02:42:57;98259.00;;;8.50
71564;BMP180;59391;52.504;13.438;2023-12-22T02:45:23;98290.00;;;8.50
71564;BMP180;59391;52.504;13.438;2023-12-22T02:47:49;98273.00;;;8.60
71564;BMP180;59391;52.504;13.438;2023-12-22T02:50:16;98293.00;;;8.40
71564;BMP180;59391;52.504;13.438;2023-12-22T02:52:42;98273.00;;;8.50
71564;BMP180;59391;52.504;13.438;2023-12-22T02:55:09;98272.00;;;8.50
71564;BMP180;59391;52.504;13.438;2023-12-22T02:57:35;98256.00;;;8.40
71564;BMP180;59391;52.504;13.438;2023-12-22T03:00:00;98263.00;;;8.60
71564;BMP180;59391;52.504;13.438;2023-12-22T03:02:26;98257.00;;;8.50
71564;BMP180;59391;52.504;13.438;2023-12-22T03:04:52;98283.00;;;8.50
71564;BMP180;59391;52.504;13.438;2023-12-22T03:07:18;98248.00;;;8.60
71564;BMP180;59391;52.504;13.438;2023-12-22T03:09:43;98259.00;;;8.50
71564;BMP180;59391;52.504;13.438;2023-12-22T03:12:10;98271.00;;;8.50
71564;BMP180;59391;52.504;13.438;2023-12-22T03:14:36;98272.00;;;8.40
71564;BMP180;59391;52.504;13.438;2023-12-22T03:17:04;98253.00;;;8.30
71564;BMP180;59391;52.504;13.438;2023-12-22T03:19:31;98248.00;;;8.40
71564;BMP180;59391;52.504;13.438;2023-12-22T03:21:57;98258.00;;;8.40
71564;BMP180;59391;52.504;13.438;2023-12-22T03:24:24;98253.00;;;8.50
71564;BMP180;59391;52.504;13.438;2023-12-22T03:26:50;98253.00;;;8.50
71564;BMP180;59391;52.504;13.438;2023-12-22T03:29:17;98250.00;;;8.40
71564;BMP180;59391;52.504;13.438;2023-12-22T03:31:44;98258.00;;;8.50
71564;BMP180;59391;52.504;13.438;2023-12-22T03:34:10;98263.00;;;8.50
71564;BMP180;59391;52.504;13.438;2023-12-22T03:36:35;98269.00;;;8.30
71564;BMP180;59391;52.504;13.438;2023-12-22T03:39:02;98281.00;;;8.40
71564;BMP180;59391;52.504;13.438;2023-12-22T03:41:28;98270.00;;;8.30
71564;BMP180;59391;52.504;13.438;2023-12-22T03:43:55;98239.00;;;8.30
71564;BMP180;59391;52.504;13.438;2023-12-22T03:46:21;98256.00;;;8.10
71564;BMP180;59391;52.504;13.438;2023-12-22T03:48:46;98256.00;;;8.30
71564;BMP180;59391;52.504;13.438;2023-12-22T03:51:12;98269.00;;;8.30
71564;BMP180;59391;52.504;13.438;2023-12-22T03:53:40;98280.00;;;8.30
71564;BMP180;59391;52.504;13.438;2023-12-22T03:56:08;98312.00;;;8.10
71564;BMP180;59391;52.504;13.438;2023-12-22T03:58:35;98266.00;;;8.20
71564;BMP180;59391;52.504;13.438;2023-12-22T04:01:01;98285.00;;;8.40
71564;BMP180;59391;52.504;13.438;2023-12-22T04:03:27;98281.00;;;8.40
71564;BMP180;59391;52.504;13.438;2023-12-22T04:05:52;98272.00;;;8.20
71564;BMP180;59391;52.504;13.438;2023-12-22T04:08:18;98274.00;;;8.40
71564;BMP180;59391;52.504;13.438;2023-12-22T04:10:45;98302.00;;;8.40
71564;BMP180;59391;52.504;13.438;2023-12-22T04:13:11;98278.00;;;8.20
71564;BMP180;59391;52.504;13.438;2023-12-22T04:15:36;98274.00;;;8.20
71564;BMP180;59391;52.504;13.438;2023-12-22T04:18:02;98275.00;;;8.00
71564;BMP180;59391;52.504;13.438;2023-12-22T04:20:28;98288.00;;;8.10
71564;BMP180;59391;52.504;13.438;2023-12-22T04:22:54;98274.00;;;8.30
71564;BMP180;59391;52.504;13.438;2023-12-22T04:25:19;98254.00;;;8.10
71564;BMP180;59391;52.504;13.438;2023-12-22T04:27:45;98275.00;;;8.20
71564;BMP180;59391;52.504;13.438;2023-12-22T04:30:11;98271.00;;;8.20
71564;BMP180;59391;52.504;13.438;2023-12-22T04:32:37;98271.00;;;8.10
71564;BMP180;59391;52.504;13.438;2023-12-22T04:35:03;98298.00;;;8.10
71564;BMP180;59391;52.504;13.438;2023-12-22T04:37:29;98285.00;;;8.10
71564;BMP180;59391;52.504;13.438;2023-12-22T04:39:54;98239.00;;;8.10
71564;BMP180;59391;52.504;13.438;2023-12-22T04:42:20;98288.00;;;8.00
71564;BMP180;59391;52.504;13.438;2023-12-22T04:44:45;98279.00;;;8.10
71564;BMP180;59391;52.504;13.438;2023-12-22T04:47:11;98265.00;;;7.90
71564;BMP180;59391;52.504;13.438;2023-12-22T04:49:38;98262.00;;;7.90
71564;BMP180;59391;52.504;13.438;2023-12-22T04:52:04;98239.00;;;8.00
71564;BMP180;59391;52.504;13.438;2023-12-22T04:54:29;98275.00;;;7.90
71564;BMP180;59391;52.504;13.438;2023-12-22T04:56:55;98301.00;;;7.80
71564;BMP180;59391;52.504;13.438;2023-12-22T04:59:21;98302.00;;;7.90
71564;BMP180;59391;52.504;13.438;2023-12-22T05:01:47;98291.00;;;8.00
71564;BMP180;59391;52.504;13.438;2023-12-22T05:04:12;98306.00;;;7.90
71564;BMP180;59391;52.504;13.438;2023-12-22T05:06:38;98293.00;;;8.00
71564;BMP180;59391;52.504;13.438;2023-12-22T05:09:04;98302.00;;;8.00
71564;BMP180;59391;52.504;13.438;2023-12-22T05:11:30;98289.00;;;7.80
71564;BMP180;59391;52.504;13.438;2023-12-22T05:13:55;98309.00;;;7.60
71564;BMP180;59391;52.504;13.438;2023-12-22T05:16:21;98275.00;;;7.60
71564;BMP180;59391;52.504;13.438;2023-12-22T05:18:47;98273.00;;;7.50
71564;BMP180;59391;52.504;13.438;2023-12-22T05:21:15;98292.00;;;7.40
71564;BMP180;59391;52.504;13.438;2023-12-22T05:23:41;98283.00;;;7.50
71564;BMP180;59391;52.504;13.438;2023-12-22T05:26:07;98279.00;;;7.30
71564;BMP180;59391;52.504;13.438;2023-12-22T05:28:33;98262.00;;;7.30
71564;BMP180;59391;52.504;13.438;2023-12-22T05:30:59;98265.00;;;7.20
71564;BMP180;59391;52.504;13.438;2023-12-22T05:33:24;98257.00;;;7.30
71564;BMP180;59391;52.504;13.438;2023-12-22T05:35:51;98282.00;;;7.20
71564;BMP180;59391;52.504;13.438;2023-12-22T05:38:17;98287.00;;;7.20
71564;BMP180;59391;52.504;13.438;2023-12-22T05:40:42;98299.00;;;7.20
71564;BMP180;59391;52.504;13.438;2023-12-22T05:43:08;98292.00;;;7.30
71564;BMP180;59391;52.504;13.438;2023-12-22T05:45:33;98300.00;;;7.20
71564;BMP180;59391;52.504;13.438;2023-12-22T05:47:59;98275.00;;;7.20
71564;BMP180;59391;52.504;13.438;2023-12-22T05:50:25;98271.00;;;7.20
71564;BMP180;59391;52.504;13.438;2023-12-22T05:52:51;98278.00;;;7.20
71564;BMP180;59391;52.504;13.438;2023-12-22T05:55:17;98290.00;;;7.30
71564;BMP180;59391;52.504;13.438;2023-12-22T05:57:43;98309.00;;;7.10
71564;BMP180;59391;52.504;13.438;2023-12-22T06:00:09;98292.00;;;7.20
71564;BMP180;59391;52.504;13.438;2023-12-22T06:02:37;98281.00;;;7.20
71564;BMP180;59391;52.504;13.438;2023-12-22T06:05:09;98250.00;;;7.20
71564;BMP180;59391;52.504;13.438;2023-12-22T06:07:35;98256.00;;;7.20
71564;BMP180;59391;52.504;13.438;2023-12-22T06:10:00;98273.00;;;7.30
71564;BMP180;59391;52.504;13.438;2023-12-22T06:12:26;98290.00;;;7.30
71564;BMP180;59391;52.504;13.438;2023-12-22T06:14:51;98297.00;;;7.40
71564;BMP180;59391;52.504;13.438;2023-12-22T06:17:17;98305.00;;;7.40
71564;BMP180;59391;52.504;13.438;2023-12-22T06:19:43;98291.00;;;7.30
71564;BMP180;59391;52.504;13.438;2023-12-22T06:22:08;98300.00;;;7.30
71564;BMP180;59391;52.504;13.438;2023-12-22T06:24:37;98266.00;;;7.20
71564;BMP180;59391;52.504;13.438;2023-12-22T06:27:03;98301.00;;;7.20
71564;BMP180;59391;52.504;13.438;2023-12-22T06:29:29;98290.00;;;7.30
71564;BMP180;59391;52.504;13.438;2023-12-22T06:31:56;98314.00;;;7.40
71564;BMP180;59391;52.504;13.438;2023-12-22T06:34:22;98286.00;;;7.50
71564;BMP180;59391;52.504;13.438;2023-12-22T06:36:47;98273.00;;;7.40
71564;BMP180;59391;52.504;13.438;2023-12-22T06:39:13;98298.00;;;7.30
71564;BMP180;59391;52.504;13.438;2023-12-22T06:41:39;98278.00;;;7.40
71564;BMP180;59391;52.504;13.438;2023-12-22T06:44:05;98305.00;;;7.50
71564;BMP180;59391;52.504;13.438;2023-12-22T06:46:30;98314.00;;;7.60
71564;BMP180;59391;52.504;13.438;2023-12-22T06:48:57;98284.00;;;7.60
71564;BMP180;59391;52.504;13.438;2023-12-22T06:51:24;98300.00;;;7.60
71564;BMP180;59391;52.504;13.438;2023-12-22T06:53:58;98223.00;;;7.40
71564;BMP180;59391;52.504;13.438;2023-12-22T06:56:28;98329.00;;;7.40
71564;BMP180;59391;52.504;13.438;2023-12-22T06:58:58;98285.00;;;7.40
71564;BMP180;59391;52.504;13.438;2023-12-22T07:01:31;98253.00;;;6.80
71564;BMP180;59391;52.504;13.438;2023-12-22T07:03:58;98264.00;;;7.10
71564;BMP180;59391;52.504;13.438;2023-12-22T07:06:31;98283.00;;;7.00
71564;BMP180;59391;52.504;13.438;2023-12-22T07:11:40;98364.00;;;7.10
71564;BMP180;59391;52.504;13.438;2023-12-22T07:14:06;98337.00;;;7.00
71564;BMP180;59391;52.504;13.438;2023-12-22T07:16:33;98282.00;;;6.90
71564;BMP180;59391;52.504;13.438;2023-12-22T07:18:59;98379.00;;;6.90
71564;BMP180;59391;52.504;13.438;2023-12-22T07:21:26;98339.00;;;7.00
71564;BMP180;59391;52.504;13.438;2023-12-22T07:23:52;98316.00;;;6.90
71564;BMP180;59391;52.504;13.438;2023-12-22T07:26:28;98326.00;;;6.80
71564;BMP180;59391;52.504;13.438;2023-12-22T07:28:54;98269.00;;;6.80
71564;BMP180;59391;52.504;13.438;2023-12-22T07:31:23;98369.00;;;6.80
71564;BMP180;59391;52.504;13.438;2023-12-22T07:33:50;98377.00;;;6.80
71564;BMP180;59391;52.504;13.438;2023-12-22T07:36:15;98356.00;;;6.90
71564;BMP180;59391;52.504;13.438;2023-12-22T07:38:44;98356.00;;;6.80
71564;BMP180;59391;52.504;13.438;2023-12-22T07:41:38;98366.00;;;6.80
71564;BMP180;59391;52.504;13.438;2023-12-22T07:44:30;98305.00;;;6.90
71564;BMP180;59391;52.504;13.438;2023-12-22T07:47:05;98307.00;;;7.00
71564;BMP180;59391;52.504;13.438;2023-12-22T07:49:47;98381.00;;;6.90
71564;BMP180;59391;52.504;13.438;2023-12-22T07:53:03;98366.00;;;6.80
71564;BMP180;59391;52.504;13.438;2023-12-22T07:55:36;98328.00;;;7.00
71564;BMP180;59391;52.504;13.438;2023-12-22T07:58:27;98306.00;;;7.10
71564;BMP180;59391;52.504;13.438;2023-12-22T08:04:32;98326.00;;;7.20
71564;BMP180;59391;52.504;13.438;2023-12-22T08:07:30;98374.00;;;7.20
71564;BMP180;59391;52.504;13.438;2023-12-22T08:12:51;98407.00;;;7.20
71564;BMP180;59391;52.504;13.438;2023-12-22T08:16:01;98386.00;;;7.20
71564;BMP180;59391;52.504;13.438;2023-12-22T08:18:43;98375.00;;;7.30
71564;BMP180;59391;52.504;13.438;2023-12-22T08:21:22;98295.00;;;7.40
71564;BMP180;59391;52.504;13.438;2023-12-22T08:24:13;98386.00;;;7.30
71564;BMP180;59391;52.504;13.438;2023-12-22T08:26:55;98364.00;;;7.10
71564;BMP180;59391;52.504;13.438;2023-12-22T08:29:34;98343.00;;;7.50
71564;BMP180;59391;52.504;13.438;2023-12-22T08:32:08;98362.00;;;7.30
71564;BMP180;59391;52.504;13.438;2023-12-22T08:34:45;98398.00;;;7.50
71564;BMP180;59391;52.504;13.438;2023-12-22T08:37:27;98426.00;;;7.50
71564;BMP180;59391;52.504;13.438;2023-12-22T08:40:16;98435.00;;;7.60
71564;BMP180;59391;52.504;13.438;2023-12-22T08:43:00;98444.00;;;7.60
71564;BMP180;59391;52.504;13.438;2023-12-22T08:45:38;98440.00;;;7.50
71564;BMP180;59391;52.504;13.438;2023-12-22T08:48:16;98397.00;;;7.60
71564;BMP180;59391;52.504;13.438;2023-12-22T08:50:59;98403.00;;;7.60
71564;BMP180;59391;52.504;13.438;2023-12-22T08:56:26;98435.00;;;7.40
71564;BMP180;59391;52.504;13.438;2023-12-22T08:59:03;98418.00;;;7.70
71564;BMP180;59391;52.504;13.438;2023-12-22T09:01:58;98457.00;;;7.70
71564;BMP180;59391;52.504;13.438;2023-12-22T09:07:44;98387.00;;;7.60
71564;BMP180;59391;52.504;13.438;2023-12-22T09:10:56;98458.00;;;7.80
71564;BMP180;59391;52.504;13.438;2023-12-22T09:17:29;98482.00;;;7.80
71564;BMP180;59391;52.504;13.438;2023-12-22T09:20:07;98462.00;;;7.90
71564;BMP180;59391;52.504;13.438;2023-12-22T09:22:49;98483.00;;;7.90
71564;BMP180;59391;52.504;13.438;2023-12-22T09:25:18;98494.00;;;8.00
71564;BMP180;59391;52.504;13.438;2023-12-22T09:27:47;98409.00;;;7.80
71564;BMP180;59391;52.504;13.438;2023-12-22T09:30:23;98393.00;;;7.70
71564;BMP180;59391;52.504;13.438;2023-12-22T09:32:49;98486.00;;;7.70
71564;BMP180;59391;52.504;13.438;2023-12-22T09:35:23;98458.00;;;8.00
71564;BMP180;59391;52.504;13.438;2023-12-22T09:38:40;98484.00;;;8.10
71564;BMP180;59391;52.504;13.438;2023-12-22T09:41:07;98527.00;;;8.00
71564;BMP180;59391;52.504;13.438;2023-12-22T09:44:50;98484.00;;;8.30
71564;BMP180;59391;52.504;13.438;2023-12-22T09:47:45;98481.00;;;8.40
71564;BMP180;59391;52.504;13.438;2023-12-22T09:50:15;98535.00;;;8.30
71564;BMP180;59391;52.504;13.438;2023-12-22T09:52:51;98518.00;;;8.40
71564;BMP180;59391;52.504;13.438;2023-12-22T09:55:26;98517.00;;;8.30
71564;BMP180;59391;52.504;13.438;2023-12-22T09:57:58;98455.00;;;8.30
71564;BMP180;59391;52.504;13.438;2023-12-22T10:00:40;98560.00;;;8.40
71564;BMP180;59391;52.504;13.438;2023-12-22T10:04:01;98450.00;;;8.60
71564;BMP180;59391;52.504;13.438;2023-12-22T10:06:42;98486.00;;;8.70
71564;BMP180;59391;52.504;13.438;2023-12-22T10:09:57;98445.00;;;8.70
71564;BMP180;59391;52.504;13.438;2023-12-22T10:12:38;98529.00;;;8.70
71564;BMP180;59391;52.504;13.438;2023-12-22T10:16:10;98531.00;;;8.70
71564;BMP180;59391;52.504;13.438;2023-12-22T10:19:16;98507.00;;;8.60
71564;BMP180;59391;52.504;13.438;2023-12-22T10:22:00;98481.00;;;8.70
71564;BMP180;59391;52.504;13.438;2023-12-22T10:25:10;98466.00;;;8.90
71564;BMP180;59391;52.504;13.438;2023-12-22T10:27:43;98525.00;;;8.80
71564;BMP180;59391;52.504;13.438;2023-12-22T10:30:48;98455.00;;;8.90
71564;BMP180;59391;52.504;13.438;2023-12-22T10:33:32;98520.00;;;9.00
71564;BMP180;59391;52.504;13.438;2023-12-22T10:36:10;98474.00;;;9.00
71564;BMP180;59391;52.504;13.438;2023-12-22T10:38:56;98598.00;;;9.10
71564;BMP180;59391;52.504;13.438;2023-12-22T10:41:22;98547.00;;;8.90
71564;BMP180;59391;52.504;13.438;2023-12-22T10:43:53;98549.00;;;8.80
71564;BMP180;59391;52.504;13.438;2023-12-22T10:46:50;98546.00;;;9.10
71564;BMP180;59391;52.504;13.438;2023-12-22T10:49:39;98459.00;;;9.10
71564;BMP180;59391;52.504;13.438;2023-12-22T10:52:34;98455.00;;;8.90
71564;BMP180;59391;52.504;13.438;2023-12-22T10:55:26;98559.00;;;8.70
71564;BMP180;59391;52.504;13.438;2023-12-22T10:58:22;98511.00;;;9.10
71564;BMP180;59391;52.504;13.438;2023-12-22T11:04:01;98595.00;;;9.10
71564;BMP180;59391;52.504;13.438;2023-12-22T11:07:09;98554.00;;;9.20
71564;BMP180;59391;52.504;13.438;2023-12-22T11:09:43;98462.00;;;9.30
71564;BMP180;59391;52.504;13.438;2023-12-22T11:12:22;98550.00;;;9.30
71564;BMP180;59391;52.504;13.438;2023-12-22T11:14:54;98564.00;;;9.20
71564;BMP180;59391;52.504;13.438;2023-12-22T11:17:55;98530.00;;;9.00
71564;BMP180;59391;52.504;13.438;2023-12-22T11:20:29;98545.00;;;9.10
71564;BMP180;59391;52.504;13.438;2023-12-22T11:23:11;98563.00;;;9.30
71564;BMP180;59391;52.504;13.438;2023-12-22T11:25:51;98557.00;;;9.20
71564;BMP180;59391;52.504;13.438;2023-12-22T11:28:33;98493.00;;;9.20
71564;BMP180;59391;52.504;13.438;2023-12-22T11:31:37;98544.00;;;9.20
71564;BMP180;59391;52.504;13.438;2023-12-22T11:34:20;98555.00;;;9.10
71564;BMP180;59391;52.504;13.438;2023-12-22T11:37:06;98462.00;;;9.20
71564;BMP180;59391;52.504;13.438;2023-12-22T11:42:45;98515.00;;;9.30
71564;BMP180;59391;52.504;13.438;2023-12-22T11:45:13;98527.00;;;9.30
71564;BMP180;59391;52.504;13.438;2023-12-22T11:47:46;98553.00;;;9.50
71564;BMP180;59391;52.504;13.438;2023-12-22T11:50:31;98551.00;;;10.10
71564;BMP180;59391;52.504;13.438;2023-12-22T11:52:57;98514.00;;;10.60
71564;BMP180;59391;52.504;13.438;2023-12-22T11:56:07;98552.00;;;10.70
71564;BMP180;59391;52.504;13.438;2023-12-22T11:58:48;98513.00;;;10.80
71564;BMP180;59391;52.504;13.438;2023-12-22T12:01:19;98506.00;;;10.90
71564;BMP180;59391;52.504;13.438;2023-12-22T12:03:56;98525.00;;;11.00
71564;BMP180;59391;52.504;13.438;2023-12-22T12:08:58;98552.00;;;11.20
71564;BMP180;59391;52.504;13.438;2023-12-22T12:14:31;98569.00;;;11.60
71564;BMP180;59391;52.504;13.438;2023-12-22T12:17:11;98504.00;;;11.70
71564;BMP180;59391;52.504;13.438;2023-12-22T12:19:38;98559.00;;;12.00
71564;BMP180;59391;52.504;13.438;2023-12-22T12:22:05;98557.00;;;11.80
71564;BMP180;59391;52.504;13.438;2023-12-22T12:24:31;98521.00;;;11.40
71564;BMP180;59391;52.504;13.438;2023-12-22T12:27:19;98518.00;;;11.00
71564;BMP180;59391;52.504;13.438;2023-12-22T12:29:45;98495.00;;;11.10
71564;BMP180;59391;52.504;13.438;2023-12-22T12:32:26;98482.00;;;10.90
71564;BMP180;59391;52.504;13.438;2023-12-22T12:34:57;98476.00;;;10.80
71564;BMP180;59391;52.504;13.438;2023-12-22T12:37:24;98578.00;;;10.80
71564;BMP180;59391;52.504;13.438;2023-12-22T12:39:56;98509.00;;;10.70
71564;BMP180;59391;52.504;13.438;2023-12-22T12:42:25;98535.00;;;10.60
71564;BMP180;59391;52.504;13.438;2023-12-22T12:45:00;98621.00;;;10.50
71564;BMP180;59391;52.504;13.438;2023-12-22T12:47:40;98499.00;;;10.30
71564;BMP180;59391;52.504;13.438;2023-12-22T12:50:21;98542.00;;;10.30
71564;BMP180;59391;52.504;13.438;2023-12-22T12:52:59;98612.00;;;10.00
71564;BMP180;59391;52.504;13.438;2023-12-22T12:55:34;98567.00;;;10.00
71564;BMP180;59391;52.504;13.438;2023-12-22T12:58:04;98608.00;;;9.80
71564;BMP180;59391;52.504;13.438;2023-12-22T13:00:32;98583.00;;;9.80
71564;BMP180;59391;52.504;13.438;2023-12-22T13:03:07;98588.00;;;9.60
71564;BMP180;59391;52.504;13.438;2023-12-22T13:05:33;98587.00;;;9.70
71564;BMP180;59391;52.504;13.438;2023-12-22T13:08:15;98570.00;;;9.60
71564;BMP180;59391;52.504;13.438;2023-12-22T13:10:41;98580.00;;;9.50
71564;BMP180;59391;52.504;13.438;2023-12-22T13:13:08;98587.00;;;9.60
71564;BMP180;59391;52.504;13.438;2023-12-22T13:15:34;98595.00;;;9.50
71564;BMP180;59391;52.504;13.438;2023-12-22T13:18:01;98598.00;;;9.50
71564;BMP180;59391;52.504;13.438;2023-12-22T13:20:27;98565.00;;;9.50
71564;BMP180;59391;52.504;13.438;2023-12-22T13:22:54;98570.00;;;9.50
71564;BMP180;59391;52.504;13.438;2023-12-22T13:25:20;98520.00;;;9.50
71564;BMP180;59391;52.504;13.438;2023-12-22T13:27:51;98579.00;;;9.40
71564;BMP180;59391;52.504;13.438;2023-12-22T13:30:37;98580.00;;;9.40
71564;BMP180;59391;52.504;13.438;2023-12-22T13:33:07;98588.00;;;9.60
71564;BMP180;59391;52.504;13.438;2023-12-22T13:35:34;98545.00;;;9.40
71564;BMP180;59391;52.504;13.438;2023-12-22T13:38:05;98569.00;;;9.40
71564;BMP180;59391;52.504;13.438;2023-12-22T13:40:32;98580.00;;;9.40
71564;BMP180;59391;52.504;13.438;2023-12-22T13:42:58;98562.00;;;9.40
71564;BMP180;59391;52.504;13.438;2023-12-22T13:45:25;98596.00;;;9.40
71564;BMP180;59391;52.504;13.438;2023-12-22T13:47:54;98593.00;;;9.30
71564;BMP180;59391;52.504;13.438;2023-12-22T13:50:21;98596.00;;;9.30
71564;BMP180;59391;52.504;13.438;2023-12-22T13:52:52;98568.00;;;9.40
71564;BMP180;59391;52.504;13.438;2023-12-22T13:55:20;98598.00;;;9.50
71564;BMP180;59391;52.504;13.438;2023-12-22T13:57:48;98611.00;;;9.40
71564;BMP180;59391;52.504;13.438;2023-12-22T14:02:46;98627.00;;;9.40
71564;BMP180;59391;52.504;13.438;2023-12-22T14:05:13;98604.00;;;9.40
71564;BMP180;59391;52.504;13.438;2023-12-22T14:07:38;98626.00;;;9.30
71564;BMP180;59391;52.504;13.438;2023-12-22T14:10:06;98610.00;;;9.40
71564;BMP180;59391;52.504;13.438;2023-12-22T14:12:31;98588.00;;;9.20
71564;BMP180;59391;52.504;13.438;2023-12-22T14:14:59;98613.00;;;9.40
71564;BMP180;59391;52.504;13.438;2023-12-22T14:17:25;98561.00;;;9.40
71564;BMP180;59391;52.504;13.438;2023-12-22T14:19:51;98540.00;;;9.40
71564;BMP180;59391;52.504;13.438;2023-12-22T14:22:17;98574.00;;;9.30
71564;BMP180;59391;52.504;13.438;2023-12-22T14:24:43;98648.00;;;9.20
71564;BMP180;59391;52.504;13.438;2023-12-22T14:27:32;98578.00;;;9.10
71564;BMP180;59391;52.504;13.438;2023-12-22T14:30:21;98648.00;;;8.70
71564;BMP180;59391;52.504;13.438;2023-12-22T14:32:50;98657.00;;;8.90
71564;BMP180;59391;52.504;13.438;2023-12-22T14:35:45;98674.00;;;9.10
71564;BMP180;59391;52.504;13.438;2023-12-22T14:38:11;98613.00;;;9.10
71564;BMP180;59391;52.504;13.438;2023-12-22T14:41:02;98674.00;;;8.60
71564;BMP180;59391;52.504;13.438;2023-12-22T14:55:39;98632.00;;;8.30
71564;BMP180;59391;52.504;13.438;2023-12-22T14:58:16;98570.00;;;8.50
71564;BMP180;59391;52.504;13.438;2023-12-22T15:00:42;98644.00;;;8.50
71564;BMP180;59391;52.504;13.438;2023-12-22T15:03:08;98656.00;;;8.50
71564;BMP180;59391;52.504;13.438;2023-12-22T15:05:34;98649.00;;;8.50
71564;BMP180;59391;52.504;13.438;2023-12-22T15:07:59;98669.00;;;8.50
71564;BMP180;59391;52.504;13.438;2023-12-22T15:10:25;98642.00;;;8.50
71564;BMP180;59391;52.504;13.438;2023-12-22T15:12:51;98646.00;;;8.40
71564;BMP180;59391;52.504;13.438;2023-12-22T15:15:16;98635.00;;;8.50
71564;BMP180;59391;52.504;13.438;2023-12-22T15:17:42;98681.00;;;8.40
71564;BMP180;59391;52.504;13.438;2023-12-22T15:20:08;98677.00;;;8.40
71564;BMP180;59391;52.504;13.438;2023-12-22T15:22:34;98694.00;;;8.40
71564;BMP180;59391;52.504;13.438;2023-12-22T15:24:59;98650.00;;;8.40
71564;BMP180;59391;52.504;13.438;2023-12-22T15:27:25;98665.00;;;8.30